createdAt,value
2018-09-20T00:01:57.619Z,9.28
2018-09-20T00:04:25.783Z,8.40
2018-09-20T00:06:53.957Z,10.75
2018-09-20T00:09:22.101Z,9.28
2018-09-20T00:11:50.237Z,8.83
2018-09-20T00:14:19.046Z,8.80
2018-09-20T00:16:47.156Z,9.90
2018-09-20T00:19:15.334Z,8.45
2018-09-20T00:21:43.509Z,8.30
2018-09-20T00:24:11.678Z,8.50
2018-09-20T00:26:39.828Z,7.95
2018-09-20T00:29:08.023Z,8.55
2018-09-20T00:31:36.201Z,8.90
2018-09-20T00:34:04.351Z,8.30
2018-09-20T00:36:32.493Z,7.08
2018-09-20T00:39:00.664Z,9.30
2018-09-20T00:41:28.838Z,8.75
2018-09-20T00:43:57.029Z,8.05
2018-09-20T00:46:25.644Z,7.62
2018-09-20T00:48:55.535Z,7.95
2018-09-20T00:51:23.722Z,7.03
2018-09-20T00:53:51.874Z,7.87
2018-09-20T00:56:20.061Z,7.10
2018-09-20T00:58:48.251Z,6.97
2018-09-20T01:01:16.422Z,6.40
2018-09-20T01:03:44.591Z,6.65
2018-09-20T01:06:12.744Z,6.22
2018-09-20T01:08:40.923Z,6.92
2018-09-20T01:11:09.056Z,6.62
2018-09-20T01:13:37.214Z,6.60
2018-09-20T01:16:05.504Z,6.85
2018-09-20T01:18:33.632Z,6.22
2018-09-20T01:21:01.804Z,6.22
2018-09-20T01:23:29.958Z,6.25
2018-09-20T01:25:58.190Z,6.40
2018-09-20T01:28:26.308Z,6.62
2018-09-20T01:30:54.453Z,6.95
2018-09-20T01:33:22.572Z,7.12
2018-09-20T01:35:50.729Z,6.50
2018-09-20T01:38:18.844Z,6.62
2018-09-20T01:40:46.960Z,7.05
2018-09-20T01:43:15.102Z,5.90
2018-09-20T01:45:43.241Z,6.00
2018-09-20T01:48:11.402Z,6.08
2018-09-20T01:50:39.546Z,6.12
2018-09-20T01:53:07.777Z,5.90
2018-09-20T01:55:35.933Z,6.33
2018-09-20T01:58:04.093Z,6.10
2018-09-20T02:00:32.220Z,5.80
2018-09-20T02:03:00.368Z,5.40
2018-09-20T02:05:28.536Z,6.00
2018-09-20T02:07:56.754Z,6.05
2018-09-20T02:10:24.901Z,5.80
2018-09-20T02:12:53.044Z,5.83
2018-09-20T02:15:21.161Z,5.57
2018-09-20T02:17:49.312Z,5.42
2018-09-20T02:20:17.445Z,5.50
2018-09-20T02:22:45.546Z,5.33
2018-09-20T02:25:13.717Z,5.40
2018-09-20T02:27:41.873Z,5.00
2018-09-20T02:30:10.062Z,4.92
2018-09-20T02:32:38.185Z,4.92
2018-09-20T02:35:06.315Z,5.27
2018-09-20T02:37:34.418Z,5.92
2018-09-20T02:40:02.588Z,5.58
2018-09-20T02:42:30.727Z,4.85
2018-09-20T02:44:58.885Z,5.40
2018-09-20T02:47:27.026Z,5.12
2018-09-20T02:49:55.129Z,5.95
2018-09-20T02:52:23.423Z,6.65
2018-09-20T02:54:51.592Z,5.50
2018-09-20T02:57:19.711Z,7.12
2018-09-20T02:59:47.843Z,5.90
2018-09-20T03:02:15.965Z,5.95
2018-09-20T03:04:44.154Z,6.67
2018-09-20T03:07:12.336Z,6.20
2018-09-20T03:09:40.426Z,6.78
2018-09-20T03:12:08.546Z,6.15
2018-09-20T03:14:36.698Z,6.20
2018-09-20T03:17:04.932Z,6.15
2018-09-20T03:19:33.083Z,5.87
2018-09-20T03:22:01.256Z,7.00
2018-09-20T03:24:29.328Z,5.60
2018-09-20T03:26:57.462Z,5.78
2018-09-20T03:29:25.595Z,6.58
2018-09-20T03:31:53.723Z,6.17
2018-09-20T03:34:21.832Z,6.42
2018-09-20T03:36:49.956Z,6.28
2018-09-20T03:39:18.077Z,5.78
2018-09-20T03:41:46.221Z,6.00
2018-09-20T03:44:14.390Z,6.20
2018-09-20T03:46:42.518Z,6.53
2018-09-20T03:49:10.649Z,6.00
2018-09-20T03:51:38.744Z,6.87
2018-09-20T03:54:06.982Z,5.60
2018-09-20T03:56:35.121Z,6.10
2018-09-20T03:59:03.260Z,6.30
2018-09-20T04:01:31.405Z,6.33
2018-09-20T04:03:59.562Z,6.03
2018-09-20T04:06:27.705Z,6.15
2018-09-20T04:08:55.873Z,6.37
2018-09-20T04:11:24.008Z,6.47
2018-09-20T04:13:52.161Z,6.90
2018-09-20T04:16:20.319Z,6.42
2018-09-20T04:18:48.465Z,6.65
2018-09-20T04:21:23.157Z,6.97
2018-09-20T04:23:51.307Z,7.00
2018-09-20T04:26:19.421Z,6.50
2018-09-20T04:28:47.580Z,6.50
2018-09-20T04:31:15.737Z,6.90
2018-09-20T04:33:43.883Z,6.47
2018-09-20T04:36:12.011Z,6.58
2018-09-20T04:38:40.125Z,6.30
2018-09-20T04:41:08.328Z,8.85
2018-09-20T04:43:36.422Z,6.78
2018-09-20T04:46:04.725Z,6.55
2018-09-20T04:48:34.567Z,6.00
2018-09-20T04:51:02.731Z,6.95
2018-09-20T04:53:30.917Z,6.58
2018-09-20T04:55:58.965Z,6.00
2018-09-20T04:58:27.095Z,6.20
2018-09-20T05:00:55.351Z,6.25
2018-09-20T05:03:23.566Z,6.45
2018-09-20T05:05:51.729Z,6.70
2018-09-20T05:08:19.898Z,7.25
2018-09-20T05:10:48.094Z,6.83
2018-09-20T05:13:16.743Z,6.55
2018-09-20T05:15:44.868Z,8.47
2018-09-20T05:18:13.317Z,6.58
2018-09-20T05:20:41.529Z,7.85
2018-09-20T05:23:09.670Z,7.37
2018-09-20T05:25:37.916Z,6.30
2018-09-20T05:28:06.059Z,6.92
2018-09-20T05:30:34.180Z,6.78
2018-09-20T05:33:02.318Z,6.10
2018-09-20T05:35:30.515Z,6.70
2018-09-20T05:37:58.649Z,6.05
2018-09-20T05:40:26.819Z,5.70
2018-09-20T05:42:54.973Z,6.55
2018-09-20T05:45:23.147Z,6.70
2018-09-20T05:47:51.318Z,6.45
2018-09-20T05:50:19.449Z,6.15
2018-09-20T05:52:47.551Z,6.75
2018-09-20T05:55:15.700Z,6.47
2018-09-20T05:57:43.843Z,6.25
2018-09-20T06:00:11.960Z,6.30
2018-09-20T06:02:40.061Z,7.90
2018-09-20T06:05:08.233Z,6.37
2018-09-20T06:07:36.369Z,7.05
2018-09-20T06:10:04.530Z,6.37
2018-09-20T06:12:32.645Z,7.58
2018-09-20T06:15:00.749Z,6.67
2018-09-20T06:17:28.885Z,5.65
2018-09-20T06:19:57.002Z,7.08
2018-09-20T06:22:25.164Z,7.12
2018-09-20T06:24:53.266Z,6.40
2018-09-20T06:27:21.380Z,7.12
2018-09-20T06:29:49.513Z,6.55
2018-09-20T06:32:17.624Z,6.17
2018-09-20T06:34:45.748Z,5.37
2018-09-20T06:37:13.894Z,6.37
2018-09-20T06:39:42.002Z,7.00
2018-09-20T06:42:10.158Z,6.53
2018-09-20T06:44:38.281Z,6.67
2018-09-20T06:47:06.433Z,6.17
2018-09-20T06:49:34.580Z,7.47
2018-09-20T06:52:02.746Z,7.03
2018-09-20T06:54:30.868Z,6.70
2018-09-20T06:56:59.046Z,6.22
2018-09-20T06:59:27.207Z,6.20
2018-09-20T07:01:55.362Z,5.90
2018-09-20T07:04:23.483Z,6.42
2018-09-20T07:06:51.629Z,6.20
2018-09-20T07:09:19.790Z,5.85
2018-09-20T07:11:47.880Z,5.17
2018-09-20T07:14:16.037Z,6.57
2018-09-20T07:16:44.150Z,6.67
2018-09-20T07:19:12.271Z,5.95
2018-09-20T07:21:40.392Z,5.35
2018-09-20T07:24:08.501Z,5.20
2018-09-20T07:26:36.648Z,5.30
2018-09-20T07:29:04.812Z,5.50
2018-09-20T07:31:32.957Z,5.37
2018-09-20T07:34:01.089Z,7.25
2018-09-20T07:36:29.299Z,5.20
2018-09-20T07:38:57.490Z,5.08
2018-09-20T07:41:25.629Z,5.37
2018-09-20T07:43:53.800Z,6.20
2018-09-20T07:46:21.925Z,6.03
2018-09-20T07:48:50.110Z,4.37
2018-09-20T07:51:18.228Z,5.70
2018-09-20T07:53:46.468Z,5.03
2018-09-20T07:56:14.609Z,5.50
2018-09-20T07:58:42.752Z,4.75
2018-09-20T08:01:10.869Z,4.30
2018-09-20T08:03:39.161Z,5.10
2018-09-20T08:06:07.312Z,4.97
2018-09-20T08:08:35.442Z,4.40
2018-09-20T08:11:03.583Z,6.03
2018-09-20T08:13:31.717Z,5.47
2018-09-20T08:15:59.956Z,4.50
2018-09-20T08:18:28.082Z,4.70
2018-09-20T08:20:56.212Z,4.25
2018-09-20T08:23:24.363Z,4.37
2018-09-20T08:25:52.505Z,3.65
2018-09-20T08:28:20.641Z,4.28
2018-09-20T08:30:48.740Z,3.95
2018-09-20T08:33:16.871Z,4.70
2018-09-20T08:35:45.012Z,4.03
2018-09-20T08:38:13.159Z,4.33
2018-09-20T08:40:41.315Z,4.70
2018-09-20T08:43:09.441Z,4.20
2018-09-20T08:45:37.576Z,4.43
2018-09-20T08:48:05.709Z,4.23
2018-09-20T08:50:33.853Z,4.60
2018-09-20T08:53:02.009Z,3.77
2018-09-20T08:55:30.102Z,4.03
2018-09-20T08:57:58.214Z,5.00
2018-09-20T09:00:27.310Z,3.43
2018-09-20T09:02:55.514Z,3.43
2018-09-20T09:05:23.651Z,4.63
2018-09-20T09:07:51.770Z,4.93
2018-09-20T09:10:19.872Z,3.90
2018-09-20T09:12:48.029Z,4.20
2018-09-20T09:15:16.206Z,4.90
2018-09-20T09:17:44.331Z,4.40
2018-09-20T09:20:12.516Z,4.63
2018-09-20T09:22:40.638Z,3.97
2018-09-20T09:25:08.780Z,4.57
2018-09-20T09:27:36.946Z,4.80
2018-09-20T09:30:05.240Z,4.30
2018-09-20T09:32:33.366Z,4.80
2018-09-20T09:35:01.540Z,4.17
2018-09-20T09:37:29.700Z,4.30
2018-09-20T09:39:57.873Z,4.10
2018-09-20T09:42:26.049Z,3.93
2018-09-20T09:44:54.168Z,4.27
2018-09-20T09:47:22.260Z,4.40
2018-09-20T09:49:50.385Z,4.37
2018-09-20T09:52:18.476Z,4.50
2018-09-20T09:54:46.636Z,4.10
2018-09-20T09:57:14.743Z,4.37
2018-09-20T09:59:42.928Z,4.23
2018-09-20T10:02:11.004Z,4.17
2018-09-20T10:04:39.176Z,4.10
2018-09-20T10:07:07.365Z,4.57
2018-09-20T10:09:35.460Z,4.60
2018-09-20T10:12:03.641Z,4.87
2018-09-20T10:14:31.850Z,5.50
2018-09-20T10:16:59.984Z,4.60
2018-09-20T10:19:28.120Z,4.97
2018-09-20T10:21:56.282Z,4.20
2018-09-20T10:24:24.434Z,5.23
2018-09-20T10:26:52.617Z,4.07
2018-09-20T10:29:20.768Z,4.83
2018-09-20T10:31:48.913Z,4.70
2018-09-20T10:34:17.041Z,5.50
2018-09-20T10:36:45.182Z,5.20
2018-09-20T10:39:14.264Z,4.80
2018-09-20T10:41:42.773Z,5.00
2018-09-20T10:44:10.956Z,4.90
2018-09-20T10:46:39.103Z,4.50
2018-09-20T10:49:07.305Z,5.70
2018-09-20T10:51:35.884Z,4.80
2018-09-20T10:54:04.030Z,5.53
2018-09-20T10:56:32.240Z,4.80
2018-09-20T10:59:00.393Z,4.90
2018-09-20T11:01:28.553Z,5.77
2018-09-20T11:03:56.697Z,5.47
2018-09-20T11:06:24.873Z,5.10
2018-09-20T11:08:53.012Z,5.57
2018-09-20T11:11:21.132Z,5.10
2018-09-20T11:13:49.305Z,5.63
2018-09-20T11:16:17.447Z,4.87
2018-09-20T11:18:45.566Z,4.80
2018-09-20T11:21:13.717Z,5.50
2018-09-20T11:23:42.822Z,4.60
2018-09-20T11:26:10.984Z,5.73
2018-09-20T11:28:39.133Z,5.00
2018-09-20T11:32:04.818Z,5.00
2018-09-20T11:34:33.006Z,4.90
2018-09-20T11:37:01.123Z,4.93
2018-09-20T11:39:29.298Z,4.70
2018-09-20T11:41:57.449Z,4.93
2018-09-20T11:44:25.609Z,4.83
2018-09-20T11:46:53.764Z,5.00
2018-09-20T11:49:21.968Z,4.40
2018-09-20T11:51:50.105Z,4.60
2018-09-20T11:54:18.259Z,3.97
2018-09-20T11:56:46.381Z,4.40
2018-09-20T11:59:14.551Z,4.10
2018-09-20T12:01:42.761Z,4.47
2018-09-20T12:04:10.876Z,4.67
2018-09-20T12:06:38.991Z,4.37
2018-09-20T12:09:07.170Z,4.80
2018-09-20T12:11:35.313Z,5.40
2018-09-20T12:14:03.476Z,3.97
2018-09-20T12:16:31.659Z,4.50
2018-09-20T12:18:59.863Z,4.60
2018-09-20T12:21:28.067Z,4.50
2018-09-20T12:23:56.203Z,5.40
2018-09-20T12:26:24.338Z,5.13
2018-09-20T12:28:52.485Z,4.80
2018-09-20T12:31:20.682Z,4.70
2018-09-20T12:33:48.797Z,6.00
2018-09-20T12:36:17.258Z,4.67
2018-09-20T12:38:45.961Z,4.37
2018-09-20T12:41:14.088Z,4.50
2018-09-20T12:43:43.377Z,4.08
2018-09-20T12:46:11.525Z,4.23
2018-09-20T12:48:39.670Z,4.07
2018-09-20T12:51:08.013Z,3.83
2018-09-20T12:53:36.163Z,4.30
2018-09-20T12:56:04.322Z,5.23
2018-09-20T12:58:37.830Z,4.83
2018-09-20T13:01:06.022Z,4.20
2018-09-20T13:03:34.147Z,4.60
2018-09-20T13:06:02.330Z,5.47
2018-09-20T13:08:30.525Z,4.93
2018-09-20T13:10:58.752Z,5.27
2018-09-20T13:13:26.892Z,4.43
2018-09-20T13:15:54.999Z,4.10
2018-09-20T13:18:23.140Z,4.90
2018-09-20T13:20:51.267Z,4.90
2018-09-20T13:23:19.409Z,5.70
2018-09-20T13:25:47.588Z,5.23
2018-09-20T13:28:15.745Z,4.93
2018-09-20T13:30:43.914Z,4.43
2018-09-20T13:33:12.086Z,4.27
2018-09-20T13:35:40.309Z,3.80
2018-09-20T13:38:08.492Z,3.80
2018-09-20T13:40:36.613Z,4.23
2018-09-20T13:43:04.742Z,4.57
2018-09-20T13:45:32.939Z,4.00
2018-09-20T13:48:01.110Z,4.33
2018-09-20T13:50:29.254Z,3.67
2018-09-20T13:52:57.392Z,4.03
2018-09-20T13:55:25.521Z,3.30
2018-09-20T13:57:53.673Z,4.03
2018-09-20T14:00:21.845Z,4.70
2018-09-20T14:02:49.973Z,4.40
2018-09-20T14:05:18.106Z,3.50
2018-09-20T14:07:46.290Z,3.80
2018-09-20T14:10:14.441Z,3.83
2018-09-20T14:12:42.633Z,3.90
2018-09-20T14:15:10.787Z,4.30
2018-09-20T14:17:38.969Z,4.50
2018-09-20T14:20:07.152Z,4.10
2018-09-20T14:22:35.288Z,4.40
2018-09-20T14:25:03.461Z,4.03
2018-09-20T14:27:31.616Z,4.57
2018-09-20T14:29:59.781Z,4.00
2018-09-20T14:32:27.901Z,4.80
2018-09-20T14:34:56.095Z,4.10
2018-09-20T14:37:24.279Z,4.10
2018-09-20T14:39:52.472Z,3.47
2018-09-20T14:42:20.613Z,3.80
2018-09-20T14:44:48.749Z,3.75
2018-09-20T14:47:16.927Z,3.90
2018-09-20T14:49:45.044Z,3.73
2018-09-20T14:52:13.177Z,4.00
2018-09-20T14:54:41.318Z,3.50
2018-09-20T14:57:09.436Z,4.20
2018-09-20T14:59:37.604Z,3.70
2018-09-20T15:02:05.811Z,3.90
2018-09-20T15:04:33.987Z,3.37
2018-09-20T15:07:02.113Z,4.30
2018-09-20T15:09:30.299Z,4.40
2018-09-20T15:11:58.410Z,4.00
2018-09-20T15:14:26.586Z,3.80
2018-09-20T15:16:54.742Z,3.80
2018-09-20T15:19:22.869Z,3.53
2018-09-20T15:21:51.000Z,4.53
2018-09-20T15:24:19.128Z,4.30
2018-09-20T15:26:47.245Z,3.97
2018-09-20T15:29:15.406Z,4.57
2018-09-20T15:31:43.557Z,4.53
2018-09-20T15:34:11.733Z,4.20
2018-09-20T15:36:39.913Z,4.50
2018-09-20T15:39:09.919Z,3.60
2018-09-20T15:41:38.097Z,3.67
2018-09-20T15:44:06.261Z,4.70
2018-09-20T15:46:34.416Z,3.97
2018-09-20T15:49:02.731Z,4.03
2018-09-20T15:51:30.857Z,4.33
2018-09-20T15:53:59.003Z,4.12
2018-09-20T15:56:27.170Z,3.80
2018-09-20T15:58:55.337Z,4.40
2018-09-20T16:01:23.509Z,4.47
2018-09-20T16:03:51.645Z,4.33
2018-09-20T16:06:21.284Z,4.40
2018-09-20T16:08:49.558Z,3.90
2018-09-20T16:11:17.729Z,4.00
2018-09-20T16:13:46.346Z,4.80
2018-09-20T16:16:14.721Z,4.80
2018-09-20T16:18:42.864Z,3.73
2018-09-20T16:21:13.726Z,4.20
2018-09-20T16:30:12.455Z,4.53
2018-09-20T16:35:08.564Z,4.10
2018-09-20T16:37:51.426Z,4.40
2018-09-20T16:40:21.386Z,4.63
2018-09-20T16:42:51.032Z,3.97
2018-09-20T16:45:19.212Z,4.83
2018-09-20T16:47:47.362Z,3.47
2018-09-20T16:50:15.523Z,4.57
2018-09-20T16:52:43.756Z,4.80
2018-09-20T16:55:11.912Z,4.20
2018-09-20T16:57:40.149Z,4.30
2018-09-20T17:00:10.502Z,4.43
2018-09-20T17:02:41.896Z,4.33
2018-09-20T17:05:10.716Z,4.27
2018-09-20T17:07:38.912Z,5.00
2018-09-20T17:10:07.160Z,4.60
2018-09-20T17:12:35.471Z,5.67
2018-09-20T17:15:03.836Z,4.77
2018-09-20T17:17:32.089Z,5.07
2018-09-20T17:20:00.345Z,4.60
2018-09-20T17:22:28.482Z,5.00
2018-09-20T17:24:56.636Z,4.70
2018-09-20T17:27:25.324Z,5.20
2018-09-20T17:29:53.472Z,5.20
2018-09-20T17:32:21.617Z,4.70
2018-09-20T17:34:49.878Z,5.65
2018-09-20T17:37:19.094Z,5.13
2018-09-20T17:39:48.070Z,5.20
2018-09-20T17:42:16.722Z,5.47
2018-09-20T17:44:44.861Z,6.20
2018-09-20T17:47:13.112Z,5.27
2018-09-20T17:49:41.262Z,5.97
2018-09-20T17:52:09.813Z,5.47
2018-09-20T17:54:38.281Z,6.10
2018-09-20T17:57:06.969Z,5.43
2018-09-20T17:59:35.140Z,5.10
2018-09-20T18:02:03.296Z,5.97
2018-09-20T18:04:31.453Z,5.73
2018-09-20T18:06:59.581Z,5.97
2018-09-20T18:09:27.776Z,5.93
2018-09-20T18:11:55.919Z,5.27
2018-09-20T18:14:24.046Z,6.07
2018-09-20T18:16:52.180Z,6.30
2018-09-20T18:19:20.304Z,6.70
2018-09-20T18:21:48.449Z,6.53
2018-09-20T18:24:16.628Z,6.83
2018-09-20T18:26:44.744Z,5.73
2018-09-20T18:29:12.896Z,6.43
2018-09-20T18:31:41.037Z,5.97
2018-09-20T18:34:09.218Z,5.67
2018-09-20T18:36:37.342Z,6.00
2018-09-20T18:39:08.402Z,6.70
2018-09-20T18:41:36.553Z,5.65
2018-09-20T18:44:04.691Z,5.97
2018-09-20T18:46:32.868Z,6.60
2018-09-20T18:49:01.050Z,5.50
2018-09-20T18:51:29.181Z,5.00
2018-09-20T18:53:57.333Z,6.20
2018-09-20T18:56:25.683Z,5.97
2018-09-20T18:58:53.836Z,6.70
2018-09-20T19:01:21.943Z,5.97
2018-09-20T19:03:50.095Z,6.12
2018-09-20T19:06:18.243Z,6.30
2018-09-20T19:08:46.404Z,5.95
2018-09-20T19:11:14.546Z,6.22
2018-09-20T19:13:42.721Z,5.83
2018-09-20T19:16:10.842Z,6.70
2018-09-20T19:18:39.132Z,6.80
2018-09-20T19:21:07.297Z,7.30
2018-09-20T19:23:35.639Z,6.62
2018-09-20T19:26:03.777Z,6.60
2018-09-20T19:28:32.017Z,7.47
2018-09-20T19:31:00.192Z,7.55
2018-09-20T19:33:28.346Z,7.20
2018-09-20T19:35:56.461Z,7.53
2018-09-20T19:38:24.619Z,6.50
2018-09-20T19:40:52.736Z,6.58
2018-09-20T19:43:20.920Z,6.55
2018-09-20T19:45:49.103Z,6.97
2018-09-20T19:48:17.284Z,6.58
2018-09-20T19:50:45.413Z,6.85
2018-09-20T19:53:13.559Z,6.20
2018-09-20T19:55:41.669Z,6.47
2018-09-20T19:58:09.785Z,7.30
2018-09-20T20:00:38.025Z,7.10
2018-09-20T20:03:06.255Z,6.45
2018-09-20T20:05:34.405Z,6.70
2018-09-20T20:08:02.550Z,6.20
2018-09-20T20:10:30.723Z,6.90
2018-09-20T20:12:58.995Z,6.30
2018-09-20T20:15:27.147Z,6.65
2018-09-20T20:17:55.256Z,7.62
2018-09-20T20:20:23.485Z,6.55
2018-09-20T20:22:51.593Z,6.00
2018-09-20T20:25:19.726Z,5.65
2018-09-20T20:27:47.896Z,6.05
2018-09-20T20:30:16.065Z,5.15
2018-09-20T20:32:44.229Z,5.78
2018-09-20T20:35:12.369Z,5.80
2018-09-20T20:37:40.625Z,5.40
2018-09-20T20:40:08.742Z,6.72
2018-09-20T20:42:36.899Z,5.05
2018-09-20T20:45:05.035Z,5.87
2018-09-20T20:47:33.172Z,5.03
2018-09-20T20:50:01.268Z,5.70
2018-09-20T20:52:29.393Z,5.10
2018-09-20T20:54:57.511Z,5.00
2018-09-20T20:57:25.668Z,5.75
2018-09-20T20:59:53.818Z,5.85
2018-09-20T21:02:21.943Z,5.67
2018-09-20T21:04:50.061Z,5.50
2018-09-20T21:07:18.232Z,5.50
2018-09-20T21:09:46.387Z,5.67
2018-09-20T21:12:14.523Z,5.87
2018-09-20T21:14:42.650Z,5.60
2018-09-20T21:17:10.755Z,6.45
2018-09-20T21:19:38.884Z,4.95
2018-09-20T21:22:07.054Z,4.72
2018-09-20T21:24:35.340Z,5.00
2018-09-20T21:27:03.469Z,4.92
2018-09-20T21:29:31.615Z,5.10
2018-09-20T21:31:59.746Z,5.58
2018-09-20T21:34:27.850Z,5.03
2018-09-20T21:36:55.966Z,4.67
2018-09-20T21:39:24.122Z,5.30
2018-09-20T21:41:52.245Z,5.60
2018-09-20T21:44:20.394Z,5.83
2018-09-20T21:46:48.496Z,5.15
2018-09-20T21:49:16.626Z,4.90
2018-09-20T21:51:44.754Z,5.30
2018-09-20T21:54:12.933Z,4.87
2018-09-20T21:56:41.039Z,4.80
2018-09-20T21:59:09.134Z,5.20
2018-09-20T22:01:42.640Z,5.15
2018-09-20T22:04:10.804Z,4.40
2018-09-20T22:06:39.020Z,5.17
2018-09-20T22:09:09.128Z,5.28
2018-09-20T22:11:37.760Z,4.92
2018-09-20T22:14:06.033Z,4.60
2018-09-20T22:16:40.391Z,5.00
2018-09-20T22:19:08.554Z,4.97
2018-09-20T22:21:36.695Z,5.30
2018-09-20T22:24:04.825Z,4.70
2018-09-20T22:26:32.949Z,4.72
2018-09-20T22:29:01.061Z,5.55
2018-09-20T22:31:29.182Z,5.35
2018-09-20T22:33:57.317Z,6.25
2018-09-20T22:36:25.441Z,5.15
2018-09-20T22:38:53.541Z,5.55
2018-09-20T22:41:21.656Z,4.72
2018-09-20T22:43:49.785Z,6.17
2018-09-20T22:46:17.910Z,5.37
2018-09-20T22:48:46.036Z,6.12
2018-09-20T22:51:14.226Z,5.00
2018-09-20T22:53:43.293Z,5.45
2018-09-20T22:56:11.453Z,5.03
2018-09-20T22:58:39.604Z,6.03
2018-09-20T23:01:07.815Z,5.85
2018-09-20T23:03:35.952Z,5.47
2018-09-20T23:06:04.074Z,5.05
2018-09-20T23:08:32.198Z,5.75
2018-09-20T23:11:00.316Z,4.58
2018-09-20T23:13:28.428Z,4.80
2018-09-20T23:15:56.564Z,5.40
2018-09-20T23:18:24.679Z,6.03
2018-09-20T23:20:52.845Z,6.05
2018-09-20T23:23:20.980Z,4.87
2018-09-20T23:25:49.125Z,5.40
2018-09-20T23:28:17.280Z,5.80
2018-09-20T23:30:45.456Z,5.10
2018-09-20T23:33:13.555Z,5.03
2018-09-20T23:35:41.732Z,5.20
2018-09-20T23:38:09.870Z,4.85
2018-09-20T23:40:37.974Z,5.45
2018-09-20T23:43:06.104Z,5.17
2018-09-20T23:45:34.224Z,5.30
2018-09-20T23:48:02.389Z,6.03
2018-09-20T23:50:30.529Z,6.08
2018-09-20T23:52:58.658Z,6.15
2018-09-20T23:55:26.782Z,5.50
2018-09-20T23:57:54.944Z,6.33
